sensor_id;sensor_type;location;lat;lon;timestamp;P1;durP1;ratioP1;P2;durP2;ratioP2
5173;SDS011;2606;50.934;6.934;2023-03-01T00:02:03;8.50;;;5.13;;
5173;SDS011;2606;50.934;6.934;2023-03-01T00:04:29;7.73;;;4.50;;
5173;SDS011;2606;50.934;6.934;2023-03-01T00:06:55;15.33;;;5.37;;
5173;SDS011;2606;50.934;6.934;2023-03-01T00:09:21;9.20;;;4.77;;
5173;SDS011;2606;50.934;6.934;2023-03-01T00:11:49;11.10;;;5.57;;
5173;SDS011;2606;50.934;6.934;2023-03-01T00:14:15;8.10;;;3.83;;
5173;SDS011;2606;50.934;6.934;2023-03-01T00:16:43;7.90;;;4.80;;
5173;SDS011;2606;50.934;6.934;2023-03-01T00:19:14;9.60;;;4.90;;
5173;SDS011;2606;50.934;6.934;2023-03-01T00:21:43;12.03;;;5.00;;
5173;SDS011;2606;50.934;6.934;2023-03-01T00:24:09;7.97;;;4.00;;
5173;SDS011;2606;50.934;6.934;2023-03-01T00:26:35;7.70;;;4.27;;
5173;SDS011;2606;50.934;6.934;2023-03-01T00:29:01;9.77;;;4.10;;
5173;SDS011;2606;50.934;6.934;2023-03-01T00:31:28;6.90;;;3.67;;
5173;SDS011;2606;50.934;6.934;2023-03-01T00:33:55;6.40;;;4.10;;
5173;SDS011;2606;50.934;6.934;2023-03-01T00:36:24;5.37;;;3.47;;
5173;SDS011;2606;50.934;6.934;2023-03-01T00:38:51;13.67;;;5.57;;
5173;SDS011;2606;50.934;6.934;2023-03-01T00:41:19;7.30;;;4.00;;
5173;SDS011;2606;50.934;6.934;2023-03-01T00:43:45;9.30;;;4.97;;
5173;SDS011;2606;50.934;6.934;2023-03-01T00:46:12;5.97;;;3.40;;
5173;SDS011;2606;50.934;6.934;2023-03-01T00:48:39;7.33;;;4.50;;
5173;SDS011;2606;50.934;6.934;2023-03-01T00:51:10;10.30;;;3.80;;
5173;SDS011;2606;50.934;6.934;2023-03-01T00:53:40;7.83;;;4.60;;
5173;SDS011;2606;50.934;6.934;2023-03-01T00:56:07;6.40;;;4.03;;
5173;SDS011;2606;50.934;6.934;2023-03-01T00:58:33;7.20;;;3.97;;
5173;SDS011;2606;50.934;6.934;2023-03-01T01:01:00;6.43;;;3.93;;
5173;SDS011;2606;50.934;6.934;2023-03-01T01:03:26;7.97;;;4.70;;
5173;SDS011;2606;50.934;6.934;2023-03-01T01:05:52;6.10;;;3.70;;
5173;SDS011;2606;50.934;6.934;2023-03-01T01:08:18;4.10;;;3.17;;
5173;SDS011;2606;50.934;6.934;2023-03-01T01:10:45;5.20;;;3.53;;
5173;SDS011;2606;50.934;6.934;2023-03-01T01:13:11;5.23;;;3.70;;
5173;SDS011;2606;50.934;6.934;2023-03-01T01:15:37;6.70;;;3.70;;
5173;SDS011;2606;50.934;6.934;2023-03-01T01:18:03;6.37;;;4.07;;
5173;SDS011;2606;50.934;6.934;2023-03-01T01:20:28;5.73;;;3.60;;
5173;SDS011;2606;50.934;6.934;2023-03-01T01:22:54;8.83;;;4.27;;
5173;SDS011;2606;50.934;6.934;2023-03-01T01:25:20;6.27;;;4.60;;
5173;SDS011;2606;50.934;6.934;2023-03-01T01:27:46;5.00;;;3.90;;
5173;SDS011;2606;50.934;6.934;2023-03-01T01:30:11;5.63;;;3.77;;
5173;SDS011;2606;50.934;6.934;2023-03-01T01:32:38;6.13;;;3.70;;
5173;SDS011;2606;50.934;6.934;2023-03-01T01:35:03;5.27;;;3.70;;
5173;SDS011;2606;50.934;6.934;2023-03-01T01:37:29;6.40;;;3.87;;
5173;SDS011;2606;50.934;6.934;2023-03-01T01:39:58;6.03;;;4.03;;
5173;SDS011;2606;50.934;6.934;2023-03-01T01:42:25;8.30;;;4.10;;
5173;SDS011;2606;50.934;6.934;2023-03-01T01:47:52;8.03;;;4.43;;
5173;SDS011;2606;50.934;6.934;2023-03-01T01:50:21;5.70;;;3.63;;
5173;SDS011;2606;50.934;6.934;2023-03-01T01:52:47;5.73;;;3.93;;
5173;SDS011;2606;50.934;6.934;2023-03-01T01:55:16;5.40;;;3.83;;
5173;SDS011;2606;50.934;6.934;2023-03-01T01:57:47;6.20;;;3.90;;
5173;SDS011;2606;50.934;6.934;2023-03-01T02:00:18;7.53;;;4.40;;
5173;SDS011;2606;50.934;6.934;2023-03-01T02:02:46;4.70;;;3.73;;
5173;SDS011;2606;50.934;6.934;2023-03-01T02:05:32;4.87;;;3.80;;
5173;SDS011;2606;50.934;6.934;2023-03-01T02:08:02;6.37;;;4.00;;
5173;SDS011;2606;50.934;6.934;2023-03-01T02:10:28;8.73;;;5.03;;
5173;SDS011;2606;50.934;6.934;2023-03-01T02:12:58;6.13;;;4.17;;
5173;SDS011;2606;50.934;6.934;2023-03-01T02:15:24;8.33;;;5.13;;
5173;SDS011;2606;50.934;6.934;2023-03-01T02:17:51;6.03;;;3.90;;
5173;SDS011;2606;50.934;6.934;2023-03-01T02:23:02;5.87;;;3.90;;
5173;SDS011;2606;50.934;6.934;2023-03-01T02:30:43;11.33;;;3.50;;
5173;SDS011;2606;50.934;6.934;2023-03-01T02:33:29;7.00;;;4.13;;
5173;SDS011;2606;50.934;6.934;2023-03-01T02:35:57;6.13;;;4.47;;
5173;SDS011;2606;50.934;6.934;2023-03-01T02:38:25;9.90;;;4.70;;
5173;SDS011;2606;50.934;6.934;2023-03-01T02:40:51;11.00;;;4.10;;
5173;SDS011;2606;50.934;6.934;2023-03-01T02:43:19;4.17;;;3.70;;
5173;SDS011;2606;50.934;6.934;2023-03-01T02:45:50;9.03;;;4.30;;
5173;SDS011;2606;50.934;6.934;2023-03-01T02:48:18;10.10;;;5.23;;
5173;SDS011;2606;50.934;6.934;2023-03-01T02:53:45;7.10;;;4.90;;
5173;SDS011;2606;50.934;6.934;2023-03-01T02:56:17;13.93;;;4.87;;
5173;SDS011;2606;50.934;6.934;2023-03-01T02:58:43;5.33;;;3.80;;
5173;SDS011;2606;50.934;6.934;2023-03-01T03:01:11;8.70;;;4.20;;
5173;SDS011;2606;50.934;6.934;2023-03-01T03:03:39;7.70;;;4.60;;
5173;SDS011;2606;50.934;6.934;2023-03-01T03:06:06;8.60;;;5.10;;
5173;SDS011;2606;50.934;6.934;2023-03-01T03:08:32;8.43;;;4.97;;
5173;SDS011;2606;50.934;6.934;2023-03-01T03:10:57;10.30;;;4.33;;
5173;SDS011;2606;50.934;6.934;2023-03-01T03:13:23;11.70;;;5.13;;
5173;SDS011;2606;50.934;6.934;2023-03-01T03:15:53;6.93;;;4.83;;
5173;SDS011;2606;50.934;6.934;2023-03-01T03:18:20;7.93;;;4.70;;
5173;SDS011;2606;50.934;6.934;2023-03-01T03:20:46;6.43;;;4.27;;
5173;SDS011;2606;50.934;6.934;2023-03-01T03:23:12;8.17;;;4.33;;
5173;SDS011;2606;50.934;6.934;2023-03-01T03:25:38;10.53;;;4.60;;
5173;SDS011;2606;50.934;6.934;2023-03-01T03:28:05;9.50;;;4.10;;
5173;SDS011;2606;50.934;6.934;2023-03-01T03:30:34;5.20;;;3.57;;
5173;SDS011;2606;50.934;6.934;2023-03-01T03:33:01;5.67;;;3.90;;
5173;SDS011;2606;50.934;6.934;2023-03-01T03:35:32;7.47;;;4.60;;
5173;SDS011;2606;50.934;6.934;2023-03-01T03:38:00;7.32;;;4.22;;
5173;SDS011;2606;50.934;6.934;2023-03-01T03:40:35;6.07;;;3.47;;
5173;SDS011;2606;50.934;6.934;2023-03-01T03:43:04;6.10;;;4.40;;
5173;SDS011;2606;50.934;6.934;2023-03-01T03:45:31;6.68;;;3.90;;
5173;SDS011;2606;50.934;6.934;2023-03-01T03:47:58;8.27;;;4.97;;
5173;SDS011;2606;50.934;6.934;2023-03-01T03:50:25;9.10;;;4.63;;
5173;SDS011;2606;50.934;6.934;2023-03-01T03:52:50;9.23;;;4.70;;
5173;SDS011;2606;50.934;6.934;2023-03-01T03:55:16;7.40;;;4.60;;
5173;SDS011;2606;50.934;6.934;2023-03-01T03:57:44;6.87;;;4.87;;
5173;SDS011;2606;50.934;6.934;2023-03-01T04:00:16;9.73;;;5.67;;
5173;SDS011;2606;50.934;6.934;2023-03-01T04:02:43;8.27;;;4.07;;
5173;SDS011;2606;50.934;6.934;2023-03-01T04:05:10;10.83;;;4.50;;
5173;SDS011;2606;50.934;6.934;2023-03-01T04:07:37;11.40;;;5.23;;
5173;SDS011;2606;50.934;6.934;2023-03-01T04:10:04;8.50;;;5.35;;
5173;SDS011;2606;50.934;6.934;2023-03-01T04:12:31;8.50;;;5.07;;
5173;SDS011;2606;50.934;6.934;2023-03-01T04:14:59;9.93;;;5.47;;
5173;SDS011;2606;50.934;6.934;2023-03-01T04:17:25;7.77;;;4.43;;
5173;SDS011;2606;50.934;6.934;2023-03-01T04:19:50;6.27;;;4.60;;
5173;SDS011;2606;50.934;6.934;2023-03-01T04:22:16;14.80;;;5.60;;
5173;SDS011;2606;50.934;6.934;2023-03-01T04:24:43;11.63;;;5.43;;
5173;SDS011;2606;50.934;6.934;2023-03-01T04:27:10;14.93;;;5.10;;
5173;SDS011;2606;50.934;6.934;2023-03-01T04:29:36;11.50;;;5.83;;
5173;SDS011;2606;50.934;6.934;2023-03-01T04:32:02;8.97;;;4.50;;
5173;SDS011;2606;50.934;6.934;2023-03-01T04:34:28;10.10;;;5.00;;
5173;SDS011;2606;50.934;6.934;2023-03-01T04:37:01;10.57;;;4.33;;
5173;SDS011;2606;50.934;6.934;2023-03-01T04:42:40;12.77;;;5.68;;
5173;SDS011;2606;50.934;6.934;2023-03-01T04:45:07;12.68;;;5.97;;
5173;SDS011;2606;50.934;6.934;2023-03-01T04:47:38;9.60;;;6.40;;
5173;SDS011;2606;50.934;6.934;2023-03-01T04:50:04;11.65;;;4.43;;
5173;SDS011;2606;50.934;6.934;2023-03-01T04:52:30;11.43;;;5.50;;
5173;SDS011;2606;50.934;6.934;2023-03-01T04:54:56;10.52;;;5.00;;
5173;SDS011;2606;50.934;6.934;2023-03-01T04:57:22;7.90;;;4.43;;
5173;SDS011;2606;50.934;6.934;2023-03-01T04:59:47;13.30;;;5.63;;
5173;SDS011;2606;50.934;6.934;2023-03-01T05:02:13;10.00;;;5.73;;
5173;SDS011;2606;50.934;6.934;2023-03-01T05:04:39;8.70;;;5.50;;
5173;SDS011;2606;50.934;6.934;2023-03-01T05:07:04;10.20;;;5.30;;
5173;SDS011;2606;50.934;6.934;2023-03-01T05:09:30;11.57;;;5.67;;
5173;SDS011;2606;50.934;6.934;2023-03-01T05:11:55;10.10;;;5.70;;
5173;SDS011;2606;50.934;6.934;2023-03-01T05:14:21;9.50;;;5.53;;
5173;SDS011;2606;50.934;6.934;2023-03-01T05:16:47;11.18;;;5.88;;
5173;SDS011;2606;50.934;6.934;2023-03-01T05:19:13;11.37;;;5.27;;
5173;SDS011;2606;50.934;6.934;2023-03-01T05:21:47;7.33;;;4.03;;
5173;SDS011;2606;50.934;6.934;2023-03-01T05:24:29;9.30;;;6.07;;
5173;SDS011;2606;50.934;6.934;2023-03-01T05:26:56;12.07;;;6.68;;
5173;SDS011;2606;50.934;6.934;2023-03-01T05:29:23;10.30;;;6.00;;
5173;SDS011;2606;50.934;6.934;2023-03-01T05:34:33;9.50;;;5.40;;
5173;SDS011;2606;50.934;6.934;2023-03-01T05:37:00;6.78;;;5.32;;
5173;SDS011;2606;50.934;6.934;2023-03-01T05:39:27;9.00;;;6.22;;
5173;SDS011;2606;50.934;6.934;2023-03-01T05:41:57;10.43;;;6.90;;
5173;SDS011;2606;50.934;6.934;2023-03-01T05:44:24;12.02;;;6.45;;
5173;SDS011;2606;50.934;6.934;2023-03-01T05:46:50;8.55;;;5.85;;
5173;SDS011;2606;50.934;6.934;2023-03-01T05:49:16;12.23;;;6.30;;
5173;SDS011;2606;50.934;6.934;2023-03-01T05:51:43;10.17;;;6.23;;
5173;SDS011;2606;50.934;6.934;2023-03-01T05:54:12;10.02;;;5.60;;
5173;SDS011;2606;50.934;6.934;2023-03-01T05:56:38;10.87;;;5.80;;
5173;SDS011;2606;50.934;6.934;2023-03-01T05:59:04;10.90;;;6.27;;
5173;SDS011;2606;50.934;6.934;2023-03-01T06:01:30;10.77;;;6.07;;
5173;SDS011;2606;50.934;6.934;2023-03-01T06:03:57;12.13;;;6.15;;
5173;SDS011;2606;50.934;6.934;2023-03-01T06:06:23;8.03;;;4.87;;
5173;SDS011;2606;50.934;6.934;2023-03-01T06:08:49;10.00;;;6.60;;
5173;SDS011;2606;50.934;6.934;2023-03-01T06:11:15;13.48;;;7.40;;
5173;SDS011;2606;50.934;6.934;2023-03-01T06:13:41;12.50;;;6.80;;
5173;SDS011;2606;50.934;6.934;2023-03-01T06:16:08;11.70;;;6.67;;
5173;SDS011;2606;50.934;6.934;2023-03-01T06:18:34;14.17;;;7.40;;
5173;SDS011;2606;50.934;6.934;2023-03-01T06:21:00;11.00;;;5.75;;
5173;SDS011;2606;50.934;6.934;2023-03-01T06:23:26;15.27;;;6.53;;
5173;SDS011;2606;50.934;6.934;2023-03-01T06:25:52;10.40;;;6.33;;
5173;SDS011;2606;50.934;6.934;2023-03-01T06:28:18;12.13;;;6.38;;
5173;SDS011;2606;50.934;6.934;2023-03-01T06:30:43;13.87;;;6.23;;
5173;SDS011;2606;50.934;6.934;2023-03-01T06:33:09;11.70;;;6.27;;
5173;SDS011;2606;50.934;6.934;2023-03-01T06:35:35;11.47;;;6.10;;
5173;SDS011;2606;50.934;6.934;2023-03-01T06:38:01;12.30;;;6.80;;
5173;SDS011;2606;50.934;6.934;2023-03-01T06:40:28;12.17;;;6.20;;
5173;SDS011;2606;50.934;6.934;2023-03-01T06:42:54;12.75;;;6.63;;
5173;SDS011;2606;50.934;6.934;2023-03-01T06:45:20;12.00;;;7.13;;
5173;SDS011;2606;50.934;6.934;2023-03-01T06:47:46;17.13;;;6.90;;
5173;SDS011;2606;50.934;6.934;2023-03-01T06:50:12;18.13;;;6.90;;
5173;SDS011;2606;50.934;6.934;2023-03-01T06:52:38;10.75;;;6.05;;
5173;SDS011;2606;50.934;6.934;2023-03-01T06:55:04;14.70;;;6.83;;
5173;SDS011;2606;50.934;6.934;2023-03-01T06:57:30;11.15;;;7.25;;
5173;SDS011;2606;50.934;6.934;2023-03-01T06:59:56;11.20;;;6.60;;
5173;SDS011;2606;50.934;6.934;2023-03-01T07:02:21;15.43;;;7.67;;
5173;SDS011;2606;50.934;6.934;2023-03-01T07:04:50;16.10;;;7.77;;
5173;SDS011;2606;50.934;6.934;2023-03-01T07:07:17;12.98;;;6.38;;
5173;SDS011;2606;50.934;6.934;2023-03-01T07:09:43;14.80;;;7.88;;
5173;SDS011;2606;50.934;6.934;2023-03-01T07:12:11;16.50;;;7.33;;
5173;SDS011;2606;50.934;6.934;2023-03-01T07:14:37;11.80;;;7.27;;
5173;SDS011;2606;50.934;6.934;2023-03-01T07:17:02;14.27;;;7.07;;
5173;SDS011;2606;50.934;6.934;2023-03-01T07:19:28;14.47;;;6.83;;
5173;SDS011;2606;50.934;6.934;2023-03-01T07:21:54;18.73;;;7.70;;
5173;SDS011;2606;50.934;6.934;2023-03-01T07:24:20;15.70;;;7.50;;
5173;SDS011;2606;50.934;6.934;2023-03-01T07:26:50;15.60;;;7.37;;
5173;SDS011;2606;50.934;6.934;2023-03-01T07:29:16;13.13;;;6.70;;
5173;SDS011;2606;50.934;6.934;2023-03-01T07:31:42;15.53;;;7.30;;
5173;SDS011;2606;50.934;6.934;2023-03-01T07:34:08;12.67;;;7.03;;
5173;SDS011;2606;50.934;6.934;2023-03-01T07:36:33;11.80;;;6.63;;
5173;SDS011;2606;50.934;6.934;2023-03-01T07:38:59;14.70;;;6.87;;
5173;SDS011;2606;50.934;6.934;2023-03-01T07:41:27;12.37;;;6.33;;
5173;SDS011;2606;50.934;6.934;2023-03-01T07:43:53;13.47;;;6.47;;
5173;SDS011;2606;50.934;6.934;2023-03-01T07:46:18;10.47;;;7.10;;
5173;SDS011;2606;50.934;6.934;2023-03-01T07:48:44;17.27;;;7.30;;
5173;SDS011;2606;50.934;6.934;2023-03-01T07:51:10;18.17;;;7.47;;
5173;SDS011;2606;50.934;6.934;2023-03-01T07:53:36;11.90;;;6.97;;
5173;SDS011;2606;50.934;6.934;2023-03-01T07:56:03;11.43;;;7.00;;
5173;SDS011;2606;50.934;6.934;2023-03-01T07:58:40;11.00;;;6.87;;
5173;SDS011;2606;50.934;6.934;2023-03-01T08:01:07;17.20;;;7.60;;
5173;SDS011;2606;50.934;6.934;2023-03-01T08:03:35;15.50;;;10.97;;
5173;SDS011;2606;50.934;6.934;2023-03-01T08:06:02;11.77;;;7.13;;
5173;SDS011;2606;50.934;6.934;2023-03-01T08:08:29;12.90;;;6.93;;
5173;SDS011;2606;50.934;6.934;2023-03-01T08:10:58;12.40;;;7.27;;
5173;SDS011;2606;50.934;6.934;2023-03-01T08:13:25;14.90;;;7.50;;
5173;SDS011;2606;50.934;6.934;2023-03-01T08:15:52;12.97;;;7.33;;
5173;SDS011;2606;50.934;6.934;2023-03-01T08:18:18;18.20;;;8.50;;
5173;SDS011;2606;50.934;6.934;2023-03-01T08:20:44;13.10;;;8.00;;
5173;SDS011;2606;50.934;6.934;2023-03-01T08:23:10;14.60;;;7.30;;
5173;SDS011;2606;50.934;6.934;2023-03-01T08:25:36;14.30;;;6.83;;
5173;SDS011;2606;50.934;6.934;2023-03-01T08:28:02;12.80;;;6.97;;
5173;SDS011;2606;50.934;6.934;2023-03-01T08:30:28;15.30;;;7.93;;
5173;SDS011;2606;50.934;6.934;2023-03-01T08:32:54;13.87;;;6.97;;
5173;SDS011;2606;50.934;6.934;2023-03-01T08:35:20;13.27;;;7.70;;
5173;SDS011;2606;50.934;6.934;2023-03-01T08:37:46;13.43;;;7.10;;
5173;SDS011;2606;50.934;6.934;2023-03-01T08:40:12;11.63;;;6.90;;
5173;SDS011;2606;50.934;6.934;2023-03-01T08:42:38;11.13;;;7.47;;
5173;SDS011;2606;50.934;6.934;2023-03-01T08:45:05;12.87;;;6.57;;
5173;SDS011;2606;50.934;6.934;2023-03-01T08:47:32;13.90;;;8.13;;
5173;SDS011;2606;50.934;6.934;2023-03-01T08:49:59;14.30;;;7.07;;
5173;SDS011;2606;50.934;6.934;2023-03-01T08:52:24;24.33;;;8.27;;
5173;SDS011;2606;50.934;6.934;2023-03-01T08:54:51;12.60;;;7.10;;
5173;SDS011;2606;50.934;6.934;2023-03-01T08:57:17;12.20;;;6.80;;
5173;SDS011;2606;50.934;6.934;2023-03-01T08:59:42;16.33;;;7.53;;
5173;SDS011;2606;50.934;6.934;2023-03-01T09:02:10;15.07;;;7.93;;
5173;SDS011;2606;50.934;6.934;2023-03-01T09:04:38;17.80;;;8.30;;
5173;SDS011;2606;50.934;6.934;2023-03-01T09:07:04;12.03;;;6.93;;
5173;SDS011;2606;50.934;6.934;2023-03-01T09:09:30;14.57;;;6.90;;
5173;SDS011;2606;50.934;6.934;2023-03-01T09:11:56;12.77;;;6.50;;
5173;SDS011;2606;50.934;6.934;2023-03-01T09:14:21;10.97;;;6.87;;
5173;SDS011;2606;50.934;6.934;2023-03-01T09:16:47;13.77;;;6.70;;
5173;SDS011;2606;50.934;6.934;2023-03-01T09:19:13;12.53;;;7.00;;
5173;SDS011;2606;50.934;6.934;2023-03-01T09:21:39;16.40;;;8.33;;
5173;SDS011;2606;50.934;6.934;2023-03-01T09:24:05;17.23;;;7.80;;
5173;SDS011;2606;50.934;6.934;2023-03-01T09:26:40;16.60;;;7.10;;
5173;SDS011;2606;50.934;6.934;2023-03-01T09:29:05;13.63;;;6.57;;
5173;SDS011;2606;50.934;6.934;2023-03-01T09:31:31;14.57;;;6.57;;
5173;SDS011;2606;50.934;6.934;2023-03-01T09:33:57;18.77;;;7.90;;
5173;SDS011;2606;50.934;6.934;2023-03-01T09:36:23;11.60;;;7.63;;
5173;SDS011;2606;50.934;6.934;2023-03-01T09:38:52;15.60;;;7.00;;
5173;SDS011;2606;50.934;6.934;2023-03-01T09:44:23;26.47;;;7.60;;
5173;SDS011;2606;50.934;6.934;2023-03-01T09:46:58;11.97;;;6.90;;
5173;SDS011;2606;50.934;6.934;2023-03-01T09:49:28;15.10;;;6.30;;
5173;SDS011;2606;50.934;6.934;2023-03-01T09:52:00;39.77;;;7.90;;
5173;SDS011;2606;50.934;6.934;2023-03-01T09:54:37;11.37;;;6.63;;
5173;SDS011;2606;50.934;6.934;2023-03-01T09:57:15;16.83;;;6.67;;
5173;SDS011;2606;50.934;6.934;2023-03-01T10:02:49;14.63;;;7.50;;
5173;SDS011;2606;50.934;6.934;2023-03-01T10:08:06;8.90;;;5.53;;
5173;SDS011;2606;50.934;6.934;2023-03-01T10:10:56;13.40;;;7.07;;
5173;SDS011;2606;50.934;6.934;2023-03-01T10:13:31;11.63;;;6.60;;
5173;SDS011;2606;50.934;6.934;2023-03-01T10:16:21;20.80;;;8.17;;
5173;SDS011;2606;50.934;6.934;2023-03-01T10:18:58;10.53;;;6.53;;
5173;SDS011;2606;50.934;6.934;2023-03-01T10:21:27;14.83;;;8.13;;
5173;SDS011;2606;50.934;6.934;2023-03-01T10:23:56;16.53;;;7.50;;
5173;SDS011;2606;50.934;6.934;2023-03-01T10:29:23;13.03;;;5.80;;
5173;SDS011;2606;50.934;6.934;2023-03-01T10:31:56;10.97;;;6.43;;
5173;SDS011;2606;50.934;6.934;2023-03-01T10:36:56;16.47;;;6.90;;
5173;SDS011;2606;50.934;6.934;2023-03-01T10:39:33;15.17;;;6.80;;
5173;SDS011;2606;50.934;6.934;2023-03-01T10:42:07;10.90;;;6.03;;
5173;SDS011;2606;50.934;6.934;2023-03-01T10:44:48;13.63;;;7.00;;
5173;SDS011;2606;50.934;6.934;2023-03-01T10:52:23;11.20;;;7.20;;
5173;SDS011;2606;50.934;6.934;2023-03-01T10:55:08;19.10;;;6.90;;
5173;SDS011;2606;50.934;6.934;2023-03-01T10:58:16;18.57;;;6.90;;
5173;SDS011;2606;50.934;6.934;2023-03-01T11:00:49;11.60;;;6.93;;
5173;SDS011;2606;50.934;6.934;2023-03-01T11:03:18;10.23;;;5.90;;
5173;SDS011;2606;50.934;6.934;2023-03-01T11:06:33;11.50;;;5.97;;
5173;SDS011;2606;50.934;6.934;2023-03-01T11:08:36;9.13;;;5.87;;
5173;SDS011;2606;50.934;6.934;2023-03-01T11:11:13;12.60;;;6.67;;
5173;SDS011;2606;50.934;6.934;2023-03-01T11:19:04;15.60;;;8.87;;
5173;SDS011;2606;50.934;6.934;2023-03-01T11:21:54;11.83;;;7.03;;
5173;SDS011;2606;50.934;6.934;2023-03-01T11:24:30;12.73;;;7.70;;
5173;SDS011;2606;50.934;6.934;2023-03-01T11:32:50;11.20;;;6.97;;
5173;SDS011;2606;50.934;6.934;2023-03-01T11:35:28;14.47;;;7.90;;
5173;SDS011;2606;50.934;6.934;2023-03-01T11:40:43;9.40;;;6.60;;
5173;SDS011;2606;50.934;6.934;2023-03-01T11:49:22;14.40;;;8.00;;
5173;SDS011;2606;50.934;6.934;2023-03-01T11:52:21;13.17;;;7.23;;
5173;SDS011;2606;50.934;6.934;2023-03-01T11:59:54;21.03;;;9.03;;
5173;SDS011;2606;50.934;6.934;2023-03-01T12:05:45;12.23;;;7.23;;
5173;SDS011;2606;50.934;6.934;2023-03-01T12:08:41;14.73;;;7.87;;
5173;SDS011;2606;50.934;6.934;2023-03-01T12:19:56;10.37;;;5.70;;
5173;SDS011;2606;50.934;6.934;2023-03-01T12:22:38;10.67;;;6.00;;
5173;SDS011;2606;50.934;6.934;2023-03-01T12:49:55;10.40;;;6.20;;
5173;SDS011;2606;50.934;6.934;2023-03-01T12:55:16;10.63;;;5.93;;
5173;SDS011;2606;50.934;6.934;2023-03-01T12:58:03;8.70;;;5.53;;
5173;SDS011;2606;50.934;6.934;2023-03-01T13:17:54;10.93;;;6.70;;
5173;SDS011;2606;50.934;6.934;2023-03-01T13:20:24;13.63;;;6.70;;
5173;SDS011;2606;50.934;6.934;2023-03-01T13:23:11;8.47;;;5.30;;
5173;SDS011;2606;50.934;6.934;2023-03-01T13:31:55;10.60;;;5.83;;
5173;SDS011;2606;50.934;6.934;2023-03-01T13:34:00;10.77;;;6.00;;
5173;SDS011;2606;50.934;6.934;2023-03-01T13:39:18;9.73;;;5.43;;
5173;SDS011;2606;50.934;6.934;2023-03-01T13:41:53;15.77;;;7.40;;
5173;SDS011;2606;50.934;6.934;2023-03-01T13:46:45;12.03;;;5.97;;
5173;SDS011;2606;50.934;6.934;2023-03-01T13:49:16;8.93;;;5.10;;
5173;SDS011;2606;50.934;6.934;2023-03-01T13:51:46;13.30;;;5.83;;
5173;SDS011;2606;50.934;6.934;2023-03-01T13:54:14;10.27;;;6.00;;
5173;SDS011;2606;50.934;6.934;2023-03-01T13:56:51;12.40;;;5.00;;
5173;SDS011;2606;50.934;6.934;2023-03-01T13:59:19;10.67;;;5.17;;
5173;SDS011;2606;50.934;6.934;2023-03-01T14:02:19;8.40;;;5.20;;
5173;SDS011;2606;50.934;6.934;2023-03-01T14:04:38;9.80;;;5.13;;
5173;SDS011;2606;50.934;6.934;2023-03-01T14:07:12;8.83;;;5.53;;
5173;SDS011;2606;50.934;6.934;2023-03-01T14:09:55;12.97;;;5.27;;
5173;SDS011;2606;50.934;6.934;2023-03-01T14:15:18;10.50;;;5.10;;
5173;SDS011;2606;50.934;6.934;2023-03-01T14:20:41;13.03;;;5.90;;
5173;SDS011;2606;50.934;6.934;2023-03-01T14:23:11;13.23;;;5.10;;
5173;SDS011;2606;50.934;6.934;2023-03-01T14:25:46;10.57;;;5.67;;
5173;SDS011;2606;50.934;6.934;2023-03-01T14:30:42;10.43;;;5.27;;
5173;SDS011;2606;50.934;6.934;2023-03-01T14:35:57;12.30;;;5.23;;
5173;SDS011;2606;50.934;6.934;2023-03-01T14:38:35;10.57;;;4.80;;
5173;SDS011;2606;50.934;6.934;2023-03-01T14:41:06;11.77;;;5.63;;
5173;SDS011;2606;50.934;6.934;2023-03-01T14:43:36;15.10;;;5.90;;
5173;SDS011;2606;50.934;6.934;2023-03-01T14:46:04;9.10;;;4.27;;
5173;SDS011;2606;50.934;6.934;2023-03-01T14:48:30;9.47;;;5.33;;
5173;SDS011;2606;50.934;6.934;2023-03-01T14:50:56;12.33;;;5.40;;
5173;SDS011;2606;50.934;6.934;2023-03-01T14:53:23;11.07;;;5.53;;
5173;SDS011;2606;50.934;6.934;2023-03-01T14:55:52;7.67;;;5.30;;
5173;SDS011;2606;50.934;6.934;2023-03-01T14:58:22;8.20;;;5.00;;
5173;SDS011;2606;50.934;6.934;2023-03-01T15:00:53;8.27;;;4.97;;
5173;SDS011;2606;50.934;6.934;2023-03-01T15:06:14;12.13;;;5.93;;
5173;SDS011;2606;50.934;6.934;2023-03-01T15:08:45;6.93;;;5.30;;
5173;SDS011;2606;50.934;6.934;2023-03-01T15:13:39;9.80;;;5.30;;
5173;SDS011;2606;50.934;6.934;2023-03-01T15:16:22;8.90;;;5.07;;
5173;SDS011;2606;50.934;6.934;2023-03-01T15:18:51;7.90;;;5.23;;
5173;SDS011;2606;50.934;6.934;2023-03-01T15:21:23;9.33;;;5.90;;
5173;SDS011;2606;50.934;6.934;2023-03-01T15:23:54;9.00;;;5.27;;
5173;SDS011;2606;50.934;6.934;2023-03-01T15:27:13;12.80;;;6.20;;
5173;SDS011;2606;50.934;6.934;2023-03-01T15:29:32;10.10;;;5.90;;
5173;SDS011;2606;50.934;6.934;2023-03-01T15:32:04;12.17;;;6.00;;
5173;SDS011;2606;50.934;6.934;2023-03-01T15:34:37;9.07;;;5.47;;
5173;SDS011;2606;50.934;6.934;2023-03-01T15:37:05;12.47;;;6.20;;
5173;SDS011;2606;50.934;6.934;2023-03-01T15:39:53;11.70;;;5.80;;
5173;SDS011;2606;50.934;6.934;2023-03-01T15:45:11;13.33;;;5.30;;
5173;SDS011;2606;50.934;6.934;2023-03-01T15:47:47;11.07;;;5.53;;
5173;SDS011;2606;50.934;6.934;2023-03-01T15:52:47;7.03;;;4.87;;
5173;SDS011;2606;50.934;6.934;2023-03-01T15:55:18;9.47;;;5.00;;
5173;SDS011;2606;50.934;6.934;2023-03-01T15:57:44;12.00;;;5.77;;
5173;SDS011;2606;50.934;6.934;2023-03-01T16:00:10;8.90;;;5.53;;
5173;SDS011;2606;50.934;6.934;2023-03-01T16:02:38;11.70;;;5.03;;
5173;SDS011;2606;50.934;6.934;2023-03-01T16:05:20;8.47;;;5.43;;
5173;SDS011;2606;50.934;6.934;2023-03-01T16:07:49;12.93;;;5.00;;
5173;SDS011;2606;50.934;6.934;2023-03-01T16:10:15;10.53;;;5.77;;
5173;SDS011;2606;50.934;6.934;2023-03-01T16:12:41;15.10;;;5.63;;
5173;SDS011;2606;50.934;6.934;2023-03-01T16:15:10;21.03;;;5.20;;
5173;SDS011;2606;50.934;6.934;2023-03-01T16:17:41;9.93;;;4.73;;
5173;SDS011;2606;50.934;6.934;2023-03-01T16:20:07;11.47;;;5.20;;
5173;SDS011;2606;50.934;6.934;2023-03-01T16:22:33;12.00;;;5.00;;
5173;SDS011;2606;50.934;6.934;2023-03-01T16:24:59;10.93;;;5.73;;
5173;SDS011;2606;50.934;6.934;2023-03-01T16:27:25;9.83;;;4.77;;
5173;SDS011;2606;50.934;6.934;2023-03-01T16:29:50;9.43;;;4.23;;
5173;SDS011;2606;50.934;6.934;2023-03-01T16:32:16;12.33;;;5.80;;
5173;SDS011;2606;50.934;6.934;2023-03-01T16:34:41;8.00;;;5.10;;
5173;SDS011;2606;50.934;6.934;2023-03-01T16:37:07;10.50;;;5.13;;
5173;SDS011;2606;50.934;6.934;2023-03-01T16:39:32;9.83;;;4.70;;
5173;SDS011;2606;50.934;6.934;2023-03-01T16:41:59;7.90;;;4.40;;
5173;SDS011;2606;50.934;6.934;2023-03-01T16:44:26;9.10;;;5.00;;
5173;SDS011;2606;50.934;6.934;2023-03-01T16:46:51;6.23;;;3.90;;
5173;SDS011;2606;50.934;6.934;2023-03-01T16:49:17;12.07;;;5.03;;
5173;SDS011;2606;50.934;6.934;2023-03-01T16:51:42;11.30;;;4.73;;
5173;SDS011;2606;50.934;6.934;2023-03-01T16:54:09;7.57;;;4.60;;
5173;SDS011;2606;50.934;6.934;2023-03-01T16:56:35;39.53;;;14.37;;
5173;SDS011;2606;50.934;6.934;2023-03-01T16:59:03;13.33;;;5.70;;
5173;SDS011;2606;50.934;6.934;2023-03-01T17:01:30;10.57;;;5.57;;
5173;SDS011;2606;50.934;6.934;2023-03-01T17:03:59;10.33;;;5.30;;
5173;SDS011;2606;50.934;6.934;2023-03-01T17:06:25;12.17;;;5.50;;
5173;SDS011;2606;50.934;6.934;2023-03-01T17:08:52;7.43;;;5.23;;
5173;SDS011;2606;50.934;6.934;2023-03-01T17:11:18;7.70;;;4.63;;
5173;SDS011;2606;50.934;6.934;2023-03-01T17:13:45;7.17;;;4.50;;
5173;SDS011;2606;50.934;6.934;2023-03-01T17:16:12;9.30;;;4.60;;
5173;SDS011;2606;50.934;6.934;2023-03-01T17:18:39;7.00;;;4.23;;
5173;SDS011;2606;50.934;6.934;2023-03-01T17:21:05;9.00;;;4.77;;
5173;SDS011;2606;50.934;6.934;2023-03-01T17:23:35;6.33;;;3.70;;
5173;SDS011;2606;50.934;6.934;2023-03-01T17:26:02;11.70;;;7.40;;
5173;SDS011;2606;50.934;6.934;2023-03-01T17:28:29;8.80;;;5.27;;
5173;SDS011;2606;50.934;6.934;2023-03-01T17:30:56;10.83;;;4.87;;
5173;SDS011;2606;50.934;6.934;2023-03-01T17:33:24;10.73;;;5.20;;
5173;SDS011;2606;50.934;6.934;2023-03-01T17:35:49;7.23;;;4.10;;
5173;SDS011;2606;50.934;6.934;2023-03-01T17:38:15;9.97;;;5.30;;
5173;SDS011;2606;50.934;6.934;2023-03-01T17:40:42;11.47;;;4.80;;
5173;SDS011;2606;50.934;6.934;2023-03-01T17:43:12;9.47;;;4.83;;
5173;SDS011;2606;50.934;6.934;2023-03-01T17:45:38;12.40;;;5.60;;
5173;SDS011;2606;50.934;6.934;2023-03-01T17:48:04;7.40;;;4.30;;
5173;SDS011;2606;50.934;6.934;2023-03-01T17:50:30;13.57;;;4.93;;
5173;SDS011;2606;50.934;6.934;2023-03-01T17:52:57;6.23;;;4.63;;